Time;durP1;ratioP1;P1;durP2;ratioP2;P2;SDS_P1;SDS_P2;PMS_P1;PMS_P2;Temp;Humidity;BMP_temperature;BMP_pressure;BME280_temperature;BME280_humidity;BME280_pressure;Samples;Min_cycle;Max_cycle;Signal;HPM_P1;HPM_P2
2022/07/28 00:00:15;;;;;;;5.90;5.30;;;;;;;12.60;79.34;101944.81;5012385;28;20433;-43
2022/07/28 00:02:44;;;;;;;6.10;5.50;;;;;;;12.56;79.58;101948.03;5011488;28;20472;-44
2022/07/28 00:05:12;;;;;;;5.40;4.90;;;;;;;12.50;80.00;101946.91;5012270;28;20433;-42
2022/07/28 00:07:40;;;;;;;5.50;5.20;;;;;;;12.43;79.72;101948.63;5012013;28;20548;-44
2022/07/28 00:10:09;;;;;;;5.10;4.70;;;;;;;12.38;80.25;101944.84;5012076;28;20433;-44
2022/07/28 00:12:37;;;;;;;9.00;5.40;;;;;;;12.31;80.55;101944.72;5011435;28;20461;-43
2022/07/28 00:15:06;;;;;;;6.97;5.43;;;;;;;12.25;80.43;101945.44;5012198;28;20974;-43
2022/07/28 00:17:34;;;;;;;4.83;4.60;;;;;;;12.20;80.83;101951.31;5011974;28;20449;-43
2022/07/28 00:20:04;;;;;;;5.43;5.07;;;;;;;12.17;81.02;101948.16;5011967;28;20440;-43
2022/07/28 00:22:32;;;;;;;5.33;4.87;;;;;;;12.12;81.46;101937.19;5011205;28;20463;-47
2022/07/28 00:24:59;;;;;;;6.57;5.80;;;;;;;12.09;81.60;101940.22;5012310;28;20429;-43
2022/07/28 00:27:27;;;;;;;6.10;5.20;;;;;;;12.05;81.66;101947.75;5012037;28;20463;-43
2022/07/28 00:29:54;;;;;;;6.30;4.83;;;;;;;12.03;82.76;101948.94;5012009;28;20429;-46
2022/07/28 00:32:22;;;;;;;5.00;4.70;;;;;;;12.02;83.20;101944.59;5011337;28;20472;-43
2022/07/28 00:34:50;;;;;;;5.40;4.90;;;;;;;12.00;83.21;101943.94;5011421;28;20481;-44
2022/07/28 00:37:21;;;;;;;4.80;4.50;;;;;;;11.96;83.44;101945.28;5012862;28;20552;-44
2022/07/28 00:39:49;;;;;;;8.60;5.13;;;;;;;11.91;83.83;101948.50;5012902;28;20440;-42
2022/07/28 00:42:17;;;;;;;4.40;4.07;;;;;;;11.87;84.41;101949.88;5011647;28;20498;-42
2022/07/28 00:44:45;;;;;;;5.20;4.73;;;;;;;11.83;84.23;101942.34;5012296;28;20829;-43
2022/07/28 00:47:13;;;;;;;4.70;4.30;;;;;;;11.77;84.54;101951.91;5011675;28;20498;-45
2022/07/28 00:49:42;;;;;;;4.97;4.60;;;;;;;11.70;84.68;101945.63;5011967;28;20437;-43
2022/07/28 00:52:11;;;;;;;4.40;4.20;;;;;;;11.63;84.94;101941.94;5011270;28;20839;-44
2022/07/28 00:54:40;;;;;;;5.50;5.10;;;;;;;11.57;84.95;101953.31;5011635;28;21007;-43
2022/07/28 00:57:08;;;;;;;5.13;4.50;;;;;;;11.54;85.65;101946.50;5013867;28;20452;-44
2022/07/28 00:59:36;;;;;;;5.90;5.33;;;;;;;11.50;85.69;101950.50;5015428;28;20429;-43
2022/07/28 01:02:04;;;;;;;5.30;4.63;;;;;;;11.47;86.05;101950.84;5014753;28;20473;-42
2022/07/28 01:04:32;;;;;;;7.43;4.90;;;;;;;11.45;85.83;101957.38;5015544;28;20437;-42
2022/07/28 01:07:11;;;;;;;6.10;5.53;;;;;;;11.41;86.03;101950.72;5015441;28;20466;-45
2022/07/28 01:09:51;;;;;;;5.47;5.03;;;;;;;11.34;86.30;101961.25;5015211;28;20926;-43
2022/07/28 01:12:30;;;;;;;7.13;4.77;;;;;;;11.30;86.68;101957.25;5014589;28;20461;-41
2022/07/28 01:15:06;;;;;;;5.23;4.73;;;;;;;11.26;86.66;101947.91;5015071;28;20978;-41
2022/07/28 01:17:39;;;;;;;5.43;5.00;;;;;;;11.20;86.76;101953.94;5015180;28;20458;-44
2022/07/28 01:20:12;;;;;;;4.83;4.47;;;;;;;11.15;86.94;101950.97;5015143;28;20830;-42
2022/07/28 01:22:57;;;;;;;5.30;5.00;;;;;;;11.10;87.46;101947.97;5014341;28;20468;-43
2022/07/28 01:25:39;;;;;;;5.03;4.47;;;;;;;11.04;87.87;101940.66;5014492;28;20941;-42
2022/07/28 01:28:26;;;;;;;4.87;4.30;;;;;;;10.97;88.19;101945.00;5014985;28;20440;-41
2022/07/28 01:30:58;;;;;;;10.30;4.90;;;;;;;10.94;88.54;101940.84;5014470;28;20433;-42
2022/07/28 01:33:31;;;;;;;4.77;4.33;;;;;;;10.91;88.35;101943.00;5014285;28;20520;-42
2022/07/28 01:36:06;;;;;;;4.30;4.10;;;;;;;10.90;88.48;101946.69;5014752;28;20483;-45
2022/07/28 01:38:36;;;;;;;5.20;4.80;;;;;;;10.88;88.63;101948.69;5014882;28;20436;-42
2022/07/28 01:41:08;;;;;;;4.73;4.33;;;;;;;10.85;88.16;101949.84;5014225;28;20468;-42
2022/07/28 01:43:39;;;;;;;4.80;4.43;;;;;;;10.85;88.35;101947.19;5014379;28;20512;-43
2022/07/28 01:46:10;;;;;;;4.97;4.47;;;;;;;10.85;88.60;101941.84;5014622;28;20469;-41
2022/07/28 01:48:40;;;;;;;6.40;5.03;;;;;;;10.90;88.90;101944.81;5014716;28;20429;-42
2022/07/28 01:51:09;;;;;;;5.20;4.80;;;;;;;10.96;89.26;101944.16;5014266;28;20453;-42
2022/07/28 01:53:39;;;;;;;4.70;4.40;;;;;;;11.05;89.71;101939.66;5014343;28;20483;-44
2022/07/28 01:56:08;;;;;;;5.87;4.27;;;;;;;11.10;89.35;101938.13;5014223;28;20477;-45
2022/07/28 01:58:38;;;;;;;4.40;4.20;;;;;;;11.13;89.26;101938.78;5014344;28;20883;-41
2022/07/28 02:01:06;;;;;;;4.63;4.33;;;;;;;11.16;88.87;101941.97;5013894;28;20437;-42
2022/07/28 02:03:37;;;;;;;4.93;4.50;;;;;;;11.15;88.63;101929.59;5013954;28;20433;-41
2022/07/28 02:06:06;;;;;;;6.10;5.57;;;;;;;11.13;88.38;101938.78;5014180;28;20441;-41
2022/07/28 02:08:35;;;;;;;5.70;5.30;;;;;;;11.08;88.23;101932.13;5013091;28;20530;-41
2022/07/28 02:13:50;;;;;;;4.97;4.77;;;;;;;10.92;88.07;101931.34;5013815;28;20429;-41
2022/07/28 02:16:22;;;;;;;5.07;4.57;;;;;;;10.83;87.71;101932.34;5013972;28;20480;-41
2022/07/28 02:18:53;;;;;;;5.43;4.77;;;;;;;10.74;87.96;101946.69;5013897;28;20525;-41
2022/07/28 02:21:22;;;;;;;5.67;5.27;;;;;;;10.65;88.01;101937.03;5013456;28;20465;-42
2022/07/28 02:23:53;;;;;;;5.70;5.30;;;;;;;10.52;87.23;101953.53;5013891;28;20451;-42
2022/07/28 02:26:27;;;;;;;5.97;5.53;;;;;;;10.41;88.13;101952.06;5014003;28;20818;-42
2022/07/28 02:28:58;;;;;;;6.17;5.63;;;;;;;10.32;88.42;101941.53;5013937;28;20443;-41
2022/07/28 02:31:29;;;;;;;5.43;5.07;;;;;;;10.24;88.65;101938.88;5013356;28;20811;-42
2022/07/28 02:34:02;;;;;;;8.63;5.10;;;;;;;10.18;89.49;101940.38;5013561;28;20496;-43
2022/07/28 02:36:38;;;;;;;11.57;5.33;;;;;;;10.13;89.46;101942.69;5013767;28;20904;-45
2022/07/28 02:39:17;;;;;;;9.83;6.00;;;;;;;10.07;89.88;101942.47;5013801;28;20888;-42
2022/07/28 02:41:47;;;;;;;5.80;5.53;;;;;;;10.01;89.79;101954.63;5013110;28;21020;-41
2022/07/28 02:44:18;;;;;;;6.00;5.50;;;;;;;9.95;90.04;101955.25;5013346;28;20433;-42
2022/07/28 02:46:49;;;;;;;6.33;5.70;;;;;;;9.90;90.14;101954.94;5013199;28;20469;-41
2022/07/28 02:49:23;;;;;;;6.53;5.60;;;;;;;9.86;90.60;101951.75;5013496;28;20938;-42
2022/07/28 02:51:53;;;;;;;6.47;5.87;;;;;;;9.84;91.15;101953.75;5012968;28;20496;-42
2022/07/28 02:54:22;;;;;;;7.40;5.87;;;;;;;9.85;91.68;101966.09;5013054;28;20437;-42
2022/07/28 02:56:53;;;;;;;5.83;5.43;;;;;;;9.88;92.24;101972.91;5013166;28;20476;-42
2022/07/28 02:59:23;;;;;;;7.00;6.30;;;;;;;9.88;92.53;101963.09;5013484;28;20433;-42
2022/07/28 03:01:51;;;;;;;6.80;6.07;;;;;;;9.93;93.02;101967.94;5012797;28;20831;-41
2022/07/28 03:07:04;;;;;;;7.30;6.43;;;;;;;10.02;94.00;101969.63;5012708;28;20457;-41
2022/07/28 03:09:37;;;;;;;10.50;6.53;;;;;;;10.08;94.04;101968.97;5013246;28;20981;-42
2022/07/28 03:12:06;;;;;;;7.50;6.30;;;;;;;10.15;94.73;101964.69;5012591;28;20465;-41
2022/07/28 03:14:33;;;;;;;7.37;6.07;;;;;;;10.21;94.62;101971.19;5013060;28;20429;-42
2022/07/28 03:17:01;;;;;;;7.80;7.30;;;;;;;10.32;94.75;101973.53;5012832;28;20485;-44
2022/07/28 03:19:30;;;;;;;10.30;6.97;;;;;;;10.37;94.59;101969.38;5012581;28;20433;-45
2022/07/28 03:21:58;;;;;;;8.73;6.90;;;;;;;10.41;94.86;101986.72;5013353;28;20476;-41
2022/07/28 03:24:36;;;;;;;8.23;7.40;;;;;;;10.48;94.82;101984.22;5013582;28;20469;-42
2022/07/28 03:27:10;;;;;;;8.33;6.33;;;;;;;10.53;94.67;101980.06;5012773;28;20452;-41
2022/07/28 03:29:40;;;;;;;7.17;6.57;;;;;;;10.60;94.96;101974.91;5012821;28;20439;-41
2022/07/28 03:32:08;;;;;;;6.80;6.30;;;;;;;10.65;94.91;101985.88;5012031;28;20461;-41
2022/07/28 03:34:37;;;;;;;6.33;5.83;;;;;;;10.74;95.06;101984.06;5012697;28;20441;-41
2022/07/28 03:37:11;;;;;;;7.60;7.00;;;;;;;10.81;95.09;101990.41;5012432;28;20476;-41
2022/07/28 03:39:45;;;;;;;6.07;5.53;;;;;;;10.89;95.05;101987.72;5012501;28;20432;-41
2022/07/28 03:42:14;;;;;;;5.70;5.30;;;;;;;10.95;94.88;101997.72;5011771;28;20471;-41
2022/07/28 03:44:42;;;;;;;6.43;5.83;;;;;;;11.01;94.67;102002.38;5012383;28;20429;-41
2022/07/28 03:47:10;;;;;;;6.07;5.67;;;;;;;11.08;94.52;101995.34;5012184;28;20544;-41
2022/07/28 03:49:39;;;;;;;6.63;6.13;;;;;;;11.13;94.31;101994.84;5012515;28;20433;-42
2022/07/28 03:52:07;;;;;;;5.67;5.20;;;;;;;11.18;94.00;102004.00;5011746;28;20475;-43
2022/07/28 03:54:35;;;;;;;5.83;5.53;;;;;;;11.24;94.19;102007.84;5012328;28;20432;-42
2022/07/28 03:57:02;;;;;;;11.03;5.67;;;;;;;11.33;93.95;102004.16;5011984;28;20487;-41
2022/07/28 03:59:30;;;;;;;5.77;5.27;;;;;;;11.37;93.52;102000.13;5012410;28;20439;-42
2022/07/28 04:01:57;;;;;;;6.57;6.07;;;;;;;11.40;93.00;102002.47;5011818;28;20834;-41
2022/07/28 04:04:25;;;;;;;6.27;5.83;;;;;;;11.38;92.25;102018.66;5012189;28;20468;-42
2022/07/28 04:06:54;;;;;;;9.60;5.90;;;;;;;11.46;93.20;102015.97;5012113;28;20523;-42
2022/07/28 04:09:22;;;;;;;5.10;4.70;;;;;;;11.48;92.92;102008.63;5012048;28;20791;-41
2022/07/28 04:11:50;;;;;;;5.60;5.30;;;;;;;11.54;92.94;102005.25;5011785;28;20480;-43
2022/07/28 04:14:18;;;;;;;7.10;5.80;;;;;;;11.61;93.16;102014.25;5011979;28;20433;-44
2022/07/28 04:16:46;;;;;;;5.97;5.53;;;;;;;11.70;93.31;102014.25;5012032;28;20480;-43
2022/07/28 04:19:15;;;;;;;5.10;4.80;;;;;;;11.78;93.49;102008.88;5011886;28;20538;-44
2022/07/28 04:21:42;;;;;;;5.73;5.33;;;;;;;11.86;93.13;102012.34;5011494;28;20465;-41
2022/07/28 04:24:11;;;;;;;5.70;5.20;;;;;;;11.92;92.44;102013.47;5011658;28;20437;-43
2022/07/28 04:26:39;;;;;;;6.30;5.83;;;;;;;11.98;92.62;102010.94;5012093;28;20503;-41
2022/07/28 04:29:10;;;;;;;6.67;5.97;;;;;;;12.07;91.62;102014.41;5012363;28;20433;-42
2022/07/28 04:31:38;;;;;;;7.07;6.50;;;;;;;12.14;91.79;102023.41;5013364;28;20469;-43
2022/07/28 04:34:05;;;;;;;6.33;5.87;;;;;;;12.21;91.52;102014.47;5015800;28;20433;-44
2022/07/28 04:36:40;;;;;;;5.80;5.40;;;;;;;12.26;91.06;102019.31;5015624;28;20473;-46
2022/07/28 04:39:09;;;;;;;6.23;5.73;;;;;;;12.32;90.73;102021.28;5016160;28;20981;-42
2022/07/28 04:41:40;;;;;;;5.57;5.20;;;;;;;12.40;90.73;102018.56;5015474;28;20473;-45
2022/07/28 04:44:10;;;;;;;5.37;5.07;;;;;;;12.48;90.72;102025.72;5015657;28;20559;-42
2022/07/28 04:46:38;;;;;;;5.47;5.07;;;;;;;12.56;90.52;102031.81;5015703;28;20861;-42
2022/07/28 04:49:05;;;;;;;6.40;5.80;;;;;;;12.59;89.32;102031.47;5015630;28;20483;-45
2022/07/28 04:51:33;;;;;;;6.20;5.60;;;;;;;12.67;89.33;102028.72;5015361;28;20468;-44
2022/07/28 04:54:01;;;;;;;6.50;5.93;;;;;;;12.73;89.28;102024.50;5015493;28;20433;-44
2022/07/28 04:56:28;;;;;;;5.57;5.27;;;;;;;12.79;89.06;102023.78;5015528;28;20483;-43
2022/07/28 04:58:58;;;;;;;7.57;5.20;;;;;;;12.86;88.98;102024.75;5015503;28;20440;-43
2022/07/28 05:01:27;;;;;;;6.00;5.30;;;;;;;12.89;88.64;102035.09;5015490;28;20461;-43
2022/07/28 05:03:55;;;;;;;6.20;5.60;;;;;;;12.95;88.94;102031.69;5015211;28;20464;-45
2022/07/28 05:06:22;;;;;;;7.20;5.43;;;;;;;13.02;88.63;102024.56;5015441;28;20459;-42
2022/07/28 05:08:50;;;;;;;5.50;5.20;;;;;;;13.06;88.57;102019.69;5015586;28;20540;-44
2022/07/28 05:11:17;;;;;;;7.17;5.80;;;;;;;13.12;88.10;102024.34;5014919;28;20463;-42
2022/07/28 05:13:45;;;;;;;8.20;5.70;;;;;;;13.15;87.70;102024.84;5015031;28;20443;-42
2022/07/28 05:16:14;;;;;;;6.20;5.67;;;;;;;13.22;88.05;102035.66;5015029;28;20485;-42
2022/07/28 05:18:42;;;;;;;5.60;5.30;;;;;;;13.25;87.48;102030.78;5015196;28;20443;-41
2022/07/28 05:21:10;;;;;;;6.83;5.70;;;;;;;13.32;87.87;102028.16;5014837;28;20460;-43
2022/07/28 05:23:39;;;;;;;5.03;4.80;;;;;;;13.42;87.39;102028.75;5014805;28;20437;-42
2022/07/28 05:26:14;;;;;;;6.00;5.43;;;;;;;13.51;87.59;102027.63;5015242;28;20531;-44
2022/07/28 05:28:41;;;;;;;6.00;5.30;;;;;;;13.58;86.91;102033.09;5014933;28;20439;-44
2022/07/28 05:31:09;;;;;;;5.73;5.50;;;;;;;13.66;86.94;102028.47;5013918;28;20453;-42
2022/07/28 05:33:38;;;;;;;5.57;5.07;;;;;;;13.76;86.98;102037.06;5014479;28;20433;-44
2022/07/28 05:36:08;;;;;;;9.27;5.70;;;;;;;13.90;87.03;102043.44;5014524;28;20449;-42
2022/07/28 05:38:35;;;;;;;5.60;5.17;;;;;;;13.99;86.39;102041.47;5014837;28;20432;-44
2022/07/28 05:41:05;;;;;;;5.70;5.40;;;;;;;14.08;86.00;102040.34;5014394;28;20439;-43
2022/07/28 05:43:34;;;;;;;5.57;5.37;;;;;;;14.20;86.17;102045.03;5014528;28;20433;-44
2022/07/28 05:46:01;;;;;;;10.27;5.30;;;;;;;14.35;85.92;102050.41;5013856;28;21016;-43
2022/07/28 05:48:29;;;;;;;5.77;5.40;;;;;;;14.47;85.75;102051.56;5014689;28;20483;-47
2022/07/28 05:50:58;;;;;;;5.47;5.03;;;;;;;14.58;85.49;102044.84;5019671;28;20433;-44
2022/07/28 05:53:26;;;;;;;7.17;6.47;;;;;;;14.71;85.03;102048.50;5014261;28;20455;-42
2022/07/28 05:55:53;;;;;;;11.63;6.20;;;;;;;14.83;84.27;102046.97;5013975;28;20453;-41
2022/07/28 05:58:28;;;;;;;5.83;5.27;;;;;;;14.86;82.36;102049.28;5014448;28;20572;-43
2022/07/28 06:00:58;;;;;;;7.43;5.10;;;;;;;14.97;81.88;102045.22;5013122;28;20525;-44
2022/07/28 06:03:26;;;;;;;10.20;5.10;;;;;;;15.06;80.96;102040.53;5013898;28;20895;-44
2022/07/28 06:05:54;;;;;;;11.20;5.57;;;;;;;15.19;80.79;102049.56;5013878;28;20457;-42
2022/07/28 06:08:44;;;;;;;4.53;4.23;;;;;;;15.41;81.59;102047.66;5014853;28;20429;-41
2022/07/28 06:11:12;;;;;;;6.03;5.43;;;;;;;15.65;81.15;102049.88;5014045;28;20453;-43
2022/07/28 06:13:49;;;;;;;4.90;4.50;;;;;;;15.83;79.57;102052.88;5013496;28;20428;-43
2022/07/28 06:16:18;;;;;;;10.00;4.80;;;;;;;16.03;77.10;102047.59;5013910;28;20472;-44
2022/07/28 06:18:46;;;;;;;8.33;4.73;;;;;;;16.21;74.41;102044.34;5013810;28;20477;-44
2022/07/28 06:21:13;;;;;;;7.80;5.00;;;;;;;16.21;73.68;102053.28;5013582;28;20471;-42
2022/07/28 06:23:42;;;;;;;4.47;4.17;;;;;;;16.33;74.68;102058.91;5013774;28;20443;-45
2022/07/28 06:26:10;;;;;;;5.10;4.70;;;;;;;16.26;72.37;102061.56;5013823;28;20460;-42
2022/07/28 06:28:37;;;;;;;9.07;5.20;;;;;;;16.24;71.84;102063.63;5013401;28;20524;-44
2022/07/28 06:31:05;;;;;;;5.07;4.87;;;;;;;16.15;72.07;102064.84;5013044;28;20436;-43
2022/07/28 06:33:33;;;;;;;10.63;5.07;;;;;;;16.10;72.50;102056.50;5013645;28;20436;-43
2022/07/28 06:36:00;;;;;;;5.13;4.73;;;;;;;16.01;73.09;102068.47;5013748;28;20449;-42
2022/07/28 06:38:30;;;;;;;5.30;5.00;;;;;;;15.95;73.55;102072.81;5013699;28;20483;-43
2022/07/28 06:40:59;;;;;;;5.77;5.00;;;;;;;15.88;73.94;102071.13;5013126;28;20433;-42
2022/07/28 06:43:26;;;;;;;7.70;5.00;;;;;;;15.90;74.18;102071.75;5012890;28;20439;-45
2022/07/28 06:45:54;;;;;;;5.90;5.40;;;;;;;15.97;74.38;102073.47;5013200;28;20465;-41
2022/07/28 06:48:21;;;;;;;9.93;5.37;;;;;;;16.11;74.84;102070.81;5013596;28;20430;-44
2022/07/28 06:50:57;;;;;;;5.33;5.03;;;;;;;16.20;75.06;102065.06;5013094;28;20483;-42
2022/07/28 06:53:25;;;;;;;5.50;5.20;;;;;;;16.27;74.53;102067.78;5012953;28;20527;-45
2022/07/28 06:55:54;;;;;;;4.50;4.27;;;;;;;16.29;73.09;102060.31;5012929;28;20452;-44
2022/07/28 06:58:25;;;;;;;5.73;5.43;;;;;;;16.37;71.92;102065.50;5012600;28;20504;-42
2022/07/28 07:00:53;;;;;;;5.43;5.03;;;;;;;16.49;71.14;102067.41;5012754;28;20429;-44
2022/07/28 07:03:21;;;;;;;5.33;4.83;;;;;;;16.62;69.16;102076.59;5009552;28;20448;-44
2022/07/28 07:05:48;;;;;;;5.03;4.40;;;;;;;16.85;70.61;102068.97;5012441;28;20460;-44
2022/07/28 07:08:20;;;;;;;4.87;4.47;;;;;;;17.12;71.35;102068.78;5011902;28;20496;-43
2022/07/28 07:10:47;;;;;;;4.57;4.27;;;;;;;17.39;71.30;102074.16;5011739;28;20433;-42
2022/07/28 07:13:15;;;;;;;5.80;5.20;;;;;;;17.46;68.29;102070.44;5012831;28;20429;-43
2022/07/28 07:15:44;;;;;;;5.27;5.07;;;;;;;17.68;68.42;102073.75;5013050;28;20859;-42
2022/07/28 07:18:12;;;;;;;5.53;5.23;;;;;;;17.73;68.20;102076.63;5012830;28;20519;-42
2022/07/28 07:20:39;;;;;;;6.13;5.10;;;;;;;17.87;67.68;102080.09;5013000;28;20810;-42
2022/07/28 07:23:07;;;;;;;6.07;5.60;;;;;;;17.93;65.04;102082.78;5012148;28;20468;-46
2022/07/28 07:25:35;;;;;;;6.47;5.87;;;;;;;18.03;65.27;102085.06;5012594;28;20435;-43
2022/07/28 07:28:03;;;;;;;7.00;6.50;;;;;;;17.84;61.64;102086.75;5012908;28;20424;-43
2022/07/28 07:30:31;;;;;;;6.43;6.13;;;;;;;17.97;64.09;102085.91;5012606;28;20945;-45
2022/07/28 07:33:00;;;;;;;7.43;6.83;;;;;;;18.18;63.68;102085.63;5011992;28;20839;-41
2022/07/28 07:35:27;;;;;;;6.90;6.40;;;;;;;18.23;63.51;102081.22;5012472;28;20440;-43
2022/07/28 07:37:55;;;;;;;6.97;6.60;;;;;;;18.28;61.91;102088.66;5012201;28;20863;-42
2022/07/28 07:40:23;;;;;;;7.20;6.60;;;;;;;18.21;59.00;102086.03;5012703;28;20436;-44
2022/07/28 07:42:51;;;;;;;8.50;6.80;;;;;;;18.17;60.65;102086.66;5011730;28;20551;-43
2022/07/28 07:45:18;;;;;;;7.53;7.13;;;;;;;18.21;59.73;102083.31;5011133;28;20456;-48
2022/07/28 07:47:47;;;;;;;8.13;6.90;;;;;;;18.41;60.62;102087.78;5010246;28;20443;-44
2022/07/28 07:50:15;;;;;;;7.40;6.77;;;;;;;18.60;58.31;102085.03;5012251;28;20434;-43
2022/07/28 07:52:43;;;;;;;7.43;7.03;;;;;;;18.91;59.82;102092.28;5011623;28;20510;-45
2022/07/28 07:55:11;;;;;;;6.97;6.47;;;;;;;19.20;59.00;102086.22;5012352;28;20428;-43
2022/07/28 07:57:39;;;;;;;6.00;5.70;;;;;;;19.59;56.38;102082.38;5011596;28;20464;-42
2022/07/28 08:00:08;;;;;;;7.00;6.60;;;;;;;19.72;54.63;102084.13;5012158;28;20440;-44
2022/07/28 08:02:55;;;;;;;6.00;5.60;;;;;;;19.51;54.28;102088.06;5011209;28;20526;-43
2022/07/28 08:05:25;;;;;;;5.43;5.13;;;;;;;19.96;52.45;102087.81;5011710;28;20431;-45
2022/07/28 08:08:03;;;;;;;5.10;4.80;;;;;;;20.11;54.76;102085.53;5012138;28;20440;-46
2022/07/28 08:10:31;;;;;;;4.50;4.30;;;;;;;20.35;54.85;102095.47;5012135;28;20433;-44
2022/07/28 08:12:59;;;;;;;4.40;4.10;;;;;;;20.39;53.94;102083.13;5011577;28;20460;-42
2022/07/28 08:15:26;;;;;;;4.13;3.83;;;;;;;20.26;50.27;102084.13;5011848;28;20436;-44
2022/07/28 08:17:54;;;;;;;3.80;3.47;;;;;;;20.33;49.69;102081.34;5012153;28;20476;-43
2022/07/28 08:20:22;;;;;;;4.30;3.53;;;;;;;20.24;49.13;102090.81;5011918;28;20934;-42
2022/07/28 08:22:52;;;;;;;4.23;3.83;;;;;;;20.30;49.33;102087.22;5011440;28;20468;-43
2022/07/28 08:25:20;;;;;;;3.40;3.10;;;;;;;20.36;47.87;102084.44;5012003;28;20425;-44
2022/07/28 08:27:49;;;;;;;3.40;3.07;;;;;;;20.49;47.57;102088.81;5011711;28;20952;-43
2022/07/28 08:30:18;;;;;;;4.50;3.40;;;;;;;20.48;47.93;102087.19;5012066;28;20447;-44
2022/07/28 08:32:50;;;;;;;6.30;3.20;;;;;;;20.48;47.83;102091.78;5011203;28;20472;-45
2022/07/28 08:35:23;;;;;;;4.80;3.70;;;;;;;20.90;49.82;102088.03;5011756;28;20429;-44
2022/07/28 08:38:04;;;;;;;3.53;3.00;;;;;;;21.41;50.13;102085.50;5011814;28;20476;-42
2022/07/28 08:40:32;;;;;;;3.57;3.27;;;;;;;21.66;46.21;102084.44;5011721;28;20996;-43
2022/07/28 08:43:07;;;;;;;2.80;2.70;;;;;;;21.73;44.70;102088.72;5011094;28;20464;-44
2022/07/28 08:45:36;;;;;;;3.70;3.10;;;;;;;21.89;45.26;102085.28;5011770;28;20428;-45
2022/07/28 08:48:05;;;;;;;4.17;2.90;;;;;;;22.05;44.63;102083.72;5011844;28;20527;-43
2022/07/28 08:50:37;;;;;;;6.50;3.33;;;;;;;22.09;44.22;102084.06;5011739;28;20805;-42
2022/07/28 08:53:07;;;;;;;2.80;2.60;;;;;;;22.03;43.80;102086.69;5010892;28;20468;-42
2022/07/28 08:55:35;;;;;;;2.83;2.73;;;;;;;21.90;44.69;102088.81;5011918;28;20433;-42
2022/07/28 08:58:04;;;;;;;2.50;2.30;;;;;;;22.03;46.98;102096.72;5011621;28;20441;-42
2022/07/28 09:00:31;;;;;;;4.33;2.73;;;;;;;21.52;45.77;102089.31;5011679;28;20528;-46
2022/07/28 09:03:02;;;;;;;4.20;2.80;;;;;;;21.28;46.42;102088.47;5010996;28;20847;-42
2022/07/28 09:05:30;;;;;;;2.80;2.57;;;;;;;21.27;47.34;102091.41;5011332;28;20429;-41
2022/07/28 09:07:58;;;;;;;3.73;2.97;;;;;;;21.09;45.76;102084.19;5011579;28;20437;-42
2022/07/28 09:10:28;;;;;;;5.90;2.80;;;;;;;20.84;48.29;102084.38;5011411;28;20914;-42
2022/07/28 09:12:55;;;;;;;3.10;2.80;;;;;;;20.93;48.51;102080.25;5010892;28;20487;-42
2022/07/28 09:15:23;;;;;;;2.70;2.50;;;;;;;21.22;48.77;102088.59;5011393;28;20463;-42
2022/07/28 09:17:50;;;;;;;4.60;2.50;;;;;;;21.26;47.96;102095.19;5013000;28;20440;-41
2022/07/28 09:20:20;;;;;;;6.23;2.83;;;;;;;21.20;48.59;102096.13;5015331;28;20483;-41
2022/07/28 09:22:59;;;;;;;4.23;3.27;;;;;;;20.90;47.44;102094.28;5014348;28;20465;-42
2022/07/28 09:25:29;;;;;;;4.40;3.17;;;;;;;20.86;48.10;102090.38;5014949;28;20432;-42
2022/07/28 09:28:06;;;;;;;2.70;2.60;;;;;;;20.97;47.84;102091.44;5014911;28;20436;-42
2022/07/28 09:30:39;;;;;;;3.30;3.10;;;;;;;21.11;48.58;102084.81;5014768;28;20429;-45
2022/07/28 09:33:22;;;;;;;4.80;2.93;;;;;;;20.88;48.68;102093.66;5014461;28;20456;-45
2022/07/28 09:36:14;;;;;;;9.20;2.83;;;;;;;20.53;48.38;102087.31;5006725;28;20535;-42
2022/07/28 09:38:42;;;;;;;4.20;2.80;;;;;;;19.73;51.10;102093.91;5014435;28;20476;-47
2022/07/28 09:41:11;;;;;;;5.03;3.03;;;;;;;19.43;51.06;102093.78;5014424;28;20479;-42
2022/07/28 09:43:41;;;;;;;3.03;2.83;;;;;;;19.17;51.01;102091.28;5014588;28;20432;-41
2022/07/28 09:46:10;;;;;;;4.87;2.80;;;;;;;18.99;52.65;102089.34;5014331;28;20467;-43
2022/07/28 09:48:51;;;;;;;2.93;2.73;;;;;;;18.84;53.33;102098.81;5014568;28;20830;-44
2022/07/28 09:51:21;;;;;;;6.10;3.77;;;;;;;18.61;55.83;102093.94;5013939;28;20829;-42
2022/07/28 09:53:49;;;;;;;5.23;3.43;;;;;;;18.34;54.64;102101.31;5014087;28;20970;-43
2022/07/28 09:56:18;;;;;;;3.97;3.13;;;;;;;18.17;57.26;102100.97;5014376;28;20456;-43
2022/07/28 09:58:56;;;;;;;3.33;2.90;;;;;;;18.23;56.60;102102.84;5014439;28;20545;-41
2022/07/28 10:01:25;;;;;;;3.43;3.10;;;;;;;18.27;56.35;102108.63;5013838;28;21051;-43
2022/07/28 10:04:01;;;;;;;3.00;2.70;;;;;;;18.43;54.36;102110.03;5014364;28;20503;-44
2022/07/28 10:06:31;;;;;;;2.20;2.03;;;;;;;18.42;53.68;102111.91;5014238;28;20464;-42
2022/07/28 10:09:00;;;;;;;2.33;2.23;;;;;;;18.46;52.02;102106.88;5014221;28;20435;-45
2022/07/28 10:11:30;;;;;;;2.37;2.27;;;;;;;18.44;51.72;102112.50;5013587;28;20544;-42
2022/07/28 10:14:02;;;;;;;3.17;2.57;;;;;;;18.60;50.37;102113.91;5013865;28;20809;-42
2022/07/28 10:16:32;;;;;;;3.03;2.73;;;;;;;18.89;51.58;102102.50;5013939;28;20973;-42
2022/07/28 10:19:01;;;;;;;3.07;2.77;;;;;;;19.38;51.19;102106.28;5014117;28;20476;-43
2022/07/28 10:21:33;;;;;;;2.80;2.60;;;;;;;19.74;50.39;102092.84;5013476;28;20460;-47
2022/07/28 10:24:05;;;;;;;4.00;2.67;;;;;;;20.11;49.75;102090.97;5013586;28;20437;-43
2022/07/28 10:26:38;;;;;;;3.10;2.53;;;;;;;20.25;49.55;102096.00;5013635;28;20551;-43
2022/07/28 10:29:07;;;;;;;3.60;2.83;;;;;;;20.41;49.04;102084.56;5012952;28;20934;-41
2022/07/28 10:31:41;;;;;;;5.60;2.50;;;;;;;20.69;46.68;102092.09;5013448;28;20468;-42
2022/07/28 10:34:14;;;;;;;2.83;2.63;;;;;;;20.70;45.73;102084.78;5013550;28;20428;-44
2022/07/28 10:36:44;;;;;;;2.80;2.70;;;;;;;20.66;46.12;102083.59;5013280;28;20506;-43
2022/07/28 10:39:15;;;;;;;2.40;2.20;;;;;;;20.62;47.19;102080.53;5013394;28;20477;-43
2022/07/28 10:41:44;;;;;;;2.93;2.67;;;;;;;20.83;45.85;102081.88;5013114;28;20457;-42
2022/07/28 10:44:17;;;;;;;3.20;2.90;;;;;;;21.52;45.82;102078.44;5013398;28;20435;-45
2022/07/28 10:46:46;;;;;;;4.13;2.50;;;;;;;21.98;43.61;102070.25;5013389;28;20468;-44
2022/07/28 10:49:14;;;;;;;2.77;2.57;;;;;;;21.51;41.74;102077.63;5013317;28;20429;-41
2022/07/28 10:51:46;;;;;;;2.57;2.37;;;;;;;21.88;42.44;102075.50;5012762;28;20468;-44
2022/07/28 10:54:38;;;;;;;2.60;2.40;;;;;;;22.40;40.70;102070.81;5013249;28;20437;-43
2022/07/28 10:57:12;;;;;;;5.73;2.97;;;;;;;22.86;41.84;102069.81;5013223;28;20456;-44
2022/07/28 11:00:06;;;;;;;3.20;3.00;;;;;;;23.05;38.18;102070.41;5013046;28;20477;-43
2022/07/28 11:02:55;;;;;;;3.40;3.20;;;;;;;23.04;39.61;102072.28;5012325;28;20464;-46
2022/07/28 11:05:32;;;;;;;3.53;3.07;;;;;;;23.12;37.62;102074.59;5013157;28;20429;-42
2022/07/28 11:08:02;;;;;;;2.60;2.40;;;;;;;23.09;40.11;102069.66;5013075;28;20458;-42
2022/07/28 11:10:42;;;;;;;2.40;2.30;;;;;;;23.06;39.47;102072.84;5012839;28;20433;-46
2022/07/28 11:13:23;;;;;;;2.13;1.93;;;;;;;23.03;37.48;102076.06;5012297;28;20464;-43
2022/07/28 11:15:56;;;;;;;2.60;2.50;;;;;;;22.89;39.48;102080.19;5012791;28;20818;-44
2022/07/28 11:18:24;;;;;;;2.57;2.37;;;;;;;23.02;40.91;102079.06;5012944;28;20540;-43
2022/07/28 11:21:05;;;;;;;2.70;2.50;;;;;;;23.17;40.94;102070.31;5011981;28;20476;-43
2022/07/28 11:23:47;;;;;;;4.00;2.30;;;;;;;23.46;40.92;102070.00;5012470;28;20520;-44
2022/07/28 11:26:35;;;;;;;2.47;2.37;;;;;;;23.62;38.95;102073.75;5012484;28;20460;-44
2022/07/28 11:29:20;;;;;;;2.63;2.53;;;;;;;23.52;38.30;102071.72;5012611;28;20424;-44
2022/07/28 11:32:14;;;;;;;2.53;2.33;;;;;;;23.14;39.02;102077.09;5012778;28;20460;-46
2022/07/28 11:35:08;;;;;;;2.50;2.30;;;;;;;22.47;39.44;102084.28;5012513;28;20432;-45
2022/07/28 11:38:10;;;;;;;2.40;2.20;;;;;;;22.15;41.17;102075.78;5008276;28;20460;-45
2022/07/28 11:40:41;;;;;;;2.10;2.00;;;;;;;21.94;42.13;102076.41;5012214;28;20476;-47
2022/07/28 11:43:35;;;;;;;3.10;2.60;;;;;;;21.58;42.34;102065.81;5011983;28;20498;-47
2022/07/28 11:46:35;;;;;;;2.83;2.63;;;;;;;21.89;42.35;102076.31;5012448;28;20474;-45